Time;durP1;ratioP1;P1;durP2;ratioP2;P2;SDS_P1;SDS_P2;PMS_P1;PMS_P2;Temp;Humidity;BMP_temperature;BMP_pressure;BME280_temperature;BME280_humidity;BME280_pressure;Samples;Min_cycle;Max_cycle;Signal;HPM_P1;HPM_P2
2021/12/14 00:01:42;;;;;;;0.10;0.10;;;;;;;11.02;100.00;100507.66;4974491;28;20097;-55
2021/12/14 00:04:46;;;;;;;0.88;0.13;;;;;;;11.02;100.00;100518.06;4974793;28;20046;-55
2021/12/14 00:07:50;;;;;;;0.17;0.10;;;;;;;11.01;100.00;100522.06;4986822;28;20100;-55
2021/12/14 00:18:01;;;;;;;0.10;0.10;;;;;;;10.97;100.00;100499.94;4950060;28;20108;-55
2021/12/14 00:21:09;;;;;;;0.43;0.10;;;;;;;10.95;100.00;100507.97;4974884;28;20148;-55
2021/12/14 00:24:14;;;;;;;0.25;0.25;;;;;;;10.86;100.00;100499.59;4974221;28;20531;-55
2021/12/14 00:27:19;;;;;;;0.43;0.10;;;;;;;10.83;100.00;100496.97;4973700;28;20595;-55
2021/12/14 00:30:23;;;;;;;0.43;0.10;;;;;;;10.77;100.00;100496.00;4974076;28;20576;-55
2021/12/14 00:33:33;;;;;;;0.22;0.10;;;;;;;10.75;100.00;100495.69;4973800;28;20054;-55
2021/12/14 00:36:37;;;;;;;0.40;0.10;;;;;;;10.83;100.00;100508.13;4972812;28;20086;-55
2021/12/14 00:39:42;;;;;;;0.30;0.20;;;;;;;10.91;100.00;100507.34;4961578;28;20054;-55
2021/12/14 00:42:46;;;;;;;1.85;0.32;;;;;;;10.95;100.00;100504.41;4973404;28;20054;-55
2021/12/14 00:45:49;;;;;;;0.65;0.30;;;;;;;10.83;100.00;100499.75;4962155;28;20494;-55
2021/12/14 00:48:53;;;;;;;0.20;0.20;;;;;;;10.81;100.00;100507.78;4973210;28;20556;-55
2021/12/14 00:51:56;;;;;;;0.30;0.20;;;;;;;10.89;100.00;100520.19;4972382;28;20054;-55
2021/12/14 00:54:59;;;;;;;0.10;0.10;;;;;;;10.96;100.00;100517.13;4973479;28;20061;-55
2021/12/14 00:58:03;;;;;;;0.30;0.25;;;;;;;11.06;100.00;100525.03;4979901;28;20061;-55
2021/12/14 01:01:15;;;;;;;0.13;0.13;;;;;;;10.99;100.00;100508.59;4974030;28;20137;-55
2021/12/14 01:04:31;;;;;;;1.55;0.30;;;;;;;10.99;100.00;100505.03;4973316;28;20061;-55
2021/12/14 01:07:34;;;;;;;0.95;0.10;;;;;;;11.01;100.00;100505.34;4972348;28;20146;-55
2021/12/14 01:10:49;;;;;;;0.55;0.30;;;;;;;11.07;100.00;100506.28;4973084;28;20150;-55
2021/12/14 01:14:01;;;;;;;0.30;0.30;;;;;;;11.03;100.00;100498.06;4984674;28;20057;-55
2021/12/14 01:17:10;;;;;;;;;;;;;;;11.10;100.00;100508.16;4975987;28;20057;-55
2021/12/14 01:20:16;;;;;;;0.22;0.22;;;;;;;11.10;100.00;100508.16;4972970;28;20367;-55
2021/12/14 01:23:29;;;;;;;3.20;0.30;;;;;;;11.04;100.00;100515.56;4972511;28;20077;-55
2021/12/14 01:26:38;;;;;;;0.10;0.10;;;;;;;11.11;100.00;100510.47;4972292;28;20065;-55
2021/12/14 01:29:44;;;;;;;0.40;0.40;;;;;;;11.12;100.00;100502.88;4958217;28;20086;-55
2021/12/14 01:32:49;;;;;;;0.20;0.20;;;;;;;11.10;100.00;100502.56;4972705;28;20054;-55
2021/12/14 01:35:54;;;;;;;0.75;0.20;;;;;;;11.01;100.00;100506.13;4958892;28;20129;-55
2021/12/14 01:42:31;;;;;;;0.30;0.20;;;;;;;11.04;100.00;100521.16;4972381;28;20546;-56
2021/12/14 01:45:36;;;;;;;1.90;0.50;;;;;;;11.05;100.00;100517.09;4956267;28;20138;-55
2021/12/14 01:48:40;;;;;;;3.85;0.43;;;;;;;11.06;100.00;100518.69;4972372;28;20131;-55
2021/12/14 01:51:47;;;;;;;1.70;0.40;;;;;;;11.03;100.00;100522.38;4972157;28;20559;-55
2021/12/14 01:54:54;;;;;;;0.10;0.10;;;;;;;11.09;100.00;100535.25;4972130;28;20058;-55
2021/12/14 01:58:00;;;;;;;2.05;0.38;;;;;;;11.19;100.00;100527.66;4958761;28;20634;-55
2021/12/14 02:01:20;;;;;;;0.32;0.20;;;;;;;11.20;100.00;100524.41;4971686;28;20105;-55
2021/12/14 02:04:26;;;;;;;0.50;0.50;;;;;;;11.15;100.00;100527.81;4971279;28;20411;-56
2021/12/14 02:07:29;;;;;;;3.55;1.08;;;;;;;11.10;100.00;100544.38;4970450;28;20513;-55
2021/12/14 02:10:35;;;;;;;0.80;0.80;;;;;;;11.18;100.00;100554.78;4971643;28;20163;-55
2021/12/14 02:13:45;;;;;;;2.05;0.32;;;;;;;11.27;100.00;100552.00;4970607;28;20057;-55
2021/12/14 02:16:52;;;;;;;2.40;0.50;;;;;;;11.29;100.00;100551.53;4971243;28;20050;-55
2021/12/14 02:19:55;;;;;;;2.75;0.75;;;;;;;11.23;100.00;100545.81;4956607;28;20049;-55
2021/12/14 02:22:59;;;;;;;0.47;0.30;;;;;;;11.22;100.00;100546.25;4971552;28;21009;-55
2021/12/14 02:26:06;;;;;;;0.40;0.40;;;;;;;11.26;100.00;100544.09;4971109;28;20522;-55
2021/12/14 02:29:19;;;;;;;3.00;1.40;;;;;;;11.29;100.00;100543.16;4971966;28;20109;-55
2021/12/14 02:32:26;;;;;;;5.45;1.08;;;;;;;11.26;100.00;100556.00;4983436;28;20073;-55
2021/12/14 02:35:29;;;;;;;7.57;0.50;;;;;;;11.25;100.00;100553.69;4986431;28;20453;-55
2021/12/14 02:38:32;;;;;;;3.00;1.10;;;;;;;11.21;100.00;100553.06;4982882;28;20041;-55
2021/12/14 02:41:47;;;;;;;2.47;0.85;;;;;;;11.19;100.00;100555.56;4969123;28;20093;-55
2021/12/14 02:44:54;;;;;;;1.65;1.17;;;;;;;11.27;100.00;100554.78;4963241;28;20064;-55
2021/12/14 02:47:57;;;;;;;3.83;1.55;;;;;;;11.26;100.00;100555.25;4971961;28;20050;-55
2021/12/14 02:51:19;;;;;;;2.25;0.57;;;;;;;11.25;100.00;100559.28;4971605;28;20133;-55
2021/12/14 02:54:22;;;;;;;0.25;0.15;;;;;;;11.20;100.00;100560.66;4971954;28;20061;-55
2021/12/14 02:57:29;;;;;;;1.00;0.60;;;;;;;11.19;100.00;100549.97;4971972;28;20055;-55
2021/12/14 03:00:40;;;;;;;3.20;0.70;;;;;;;11.18;100.00;100553.97;4971333;28;20105;-55
2021/12/14 03:03:43;;;;;;;1.27;0.28;;;;;;;11.12;100.00;100556.63;4971690;28;20054;-55
2021/12/14 03:06:51;;;;;;;0.60;0.57;;;;;;;11.12;100.00;100561.41;4971802;28;20528;-55
2021/12/14 03:10:06;;;;;;;2.80;0.40;;;;;;;11.04;100.00;100565.75;4971731;28;20058;-55
2021/12/14 03:13:11;;;;;;;1.92;0.80;;;;;;;11.00;100.00;100551.19;4972259;28;20057;-55
2021/12/14 03:16:20;;;;;;;0.77;0.45;;;;;;;11.04;100.00;100549.03;4970850;28;20781;-55
2021/12/14 03:19:24;;;;;;;0.40;0.28;;;;;;;11.05;100.00;100539.41;4971672;28;20097;-55
2021/12/14 03:22:42;;;;;;;2.15;0.90;;;;;;;11.00;100.00;100542.81;4971765;28;20470;-55
2021/12/14 03:25:53;;;;;;;0.93;0.65;;;;;;;11.01;100.00;100544.34;4972602;28;20062;-55
2021/12/14 03:29:00;;;;;;;4.28;1.55;;;;;;;11.05;100.00;100542.19;4965455;28;20566;-55
2021/12/14 03:32:03;;;;;;;3.58;0.55;;;;;;;11.02;100.00;100540.34;4975443;28;20066;-55
2021/12/14 03:35:06;;;;;;;1.75;0.63;;;;;;;10.93;100.00;100545.91;4975498;28;20406;-55
2021/12/14 03:38:19;;;;;;;3.30;0.65;;;;;;;10.88;100.00;100547.28;4975168;28;20050;-55
2021/12/14 03:41:27;;;;;;;3.70;0.50;;;;;;;10.89;100.00;100548.06;4975869;28;20497;-55
2021/12/14 03:44:34;;;;;;;0.93;0.32;;;;;;;10.87;100.00;100547.75;4974795;28;20069;-55
2021/12/14 03:47:43;;;;;;;1.30;0.63;;;;;;;10.90;100.00;100544.03;4975046;28;20128;-55
2021/12/14 03:50:46;;;;;;;4.30;0.80;;;;;;;10.90;100.00;100538.44;4962440;28;20077;-55
2021/12/14 03:53:51;;;;;;;1.95;0.73;;;;;;;10.86;100.00;100532.25;4974909;28;20081;-55
2021/12/14 03:56:54;;;;;;;3.00;1.13;;;;;;;10.82;100.00;100542.78;4975253;28;20106;-55
2021/12/14 03:59:57;;;;;;;0.40;0.40;;;;;;;10.70;100.00;100552.03;4974706;28;20100;-55
2021/12/14 04:03:06;;;;;;;8.57;1.05;;;;;;;10.65;100.00;100545.81;4975305;28;20101;-55
2021/12/14 04:06:09;;;;;;;7.05;0.50;;;;;;;10.62;100.00;100543.97;4974927;28;20518;-55
2021/12/14 04:09:15;;;;;;;1.42;0.95;;;;;;;10.68;100.00;100544.91;4975032;28;20205;-55
2021/12/14 04:12:19;;;;;;;1.73;1.05;;;;;;;10.65;100.00;100540.25;4974584;28;20117;-55
2021/12/14 04:15:23;;;;;;;2.70;0.80;;;;;;;10.70;100.00;100538.09;4974657;28;20065;-55
2021/12/14 04:18:28;;;;;;;0.47;0.40;;;;;;;10.77;100.00;100543.38;4974691;28;20093;-55
2021/12/14 04:21:35;;;;;;;11.77;1.33;;;;;;;10.84;100.00;100541.09;4974351;28;20113;-55
2021/12/14 04:24:40;;;;;;;3.92;1.13;;;;;;;10.88;100.00;100529.78;4974320;28;20053;-55
2021/12/14 04:27:44;;;;;;;1.52;0.75;;;;;;;10.92;100.00;100535.97;4974619;28;20058;-55
2021/12/14 04:30:47;;;;;;;5.60;0.82;;;;;;;10.93;100.00;100523.59;4974210;28;20073;-55
2021/12/14 04:33:54;;;;;;;3.40;1.15;;;;;;;10.98;100.00;100534.16;4974187;28;20062;-55
2021/12/14 04:36:58;;;;;;;2.67;0.85;;;;;;;11.11;100.00;100532.00;4973850;28;20060;-55
2021/12/14 04:40:24;;;;;;;9.20;2.00;;;;;;;11.09;100.00;100535.25;4974386;28;20050;-55
2021/12/14 04:53:48;;;;;;;1.55;1.35;;;;;;;10.71;100.00;100542.44;4973262;28;19925;-56
2021/12/14 04:56:51;;;;;;;1.92;0.38;;;;;;;10.72;100.00;100549.56;4973528;28;20662;-55
2021/12/14 04:59:57;;;;;;;2.65;0.98;;;;;;;10.84;100.00;100540.31;4974235;28;20069;-55
2021/12/14 05:03:03;;;;;;;0.70;0.70;;;;;;;10.84;100.00;100546.66;4973938;28;20089;-55
2021/12/14 05:06:32;;;;;;;6.45;1.27;;;;;;;10.86;100.00;100537.81;4974197;28;20073;-55
2021/12/14 05:09:36;;;;;;;4.57;1.40;;;;;;;10.86;100.00;100544.19;4962775;28;20051;-55
2021/12/14 05:12:40;;;;;;;4.00;0.70;;;;;;;10.88;100.00;100546.50;4973279;28;20069;-55
2021/12/14 05:15:42;;;;;;;2.08;0.73;;;;;;;10.86;100.00;100543.41;4973614;28;20058;-55
2021/12/14 05:18:51;;;;;;;0.93;0.55;;;;;;;10.85;100.00;100548.19;4973220;28;20057;-55
2021/12/14 05:22:06;;;;;;;6.22;1.40;;;;;;;10.82;100.00;100542.78;4973261;28;20557;-55
2021/12/14 05:25:21;;;;;;;3.88;1.65;;;;;;;10.90;100.00;100541.25;4973590;28;20124;-55
2021/12/14 05:28:24;;;;;;;2.70;0.50;;;;;;;10.93;100.00;100543.13;4973808;28;20106;-55
2021/12/14 05:31:27;;;;;;;5.05;1.35;;;;;;;10.94;100.00;100539.06;4973364;28;20493;-55
2021/12/14 05:34:36;;;;;;;5.07;1.20;;;;;;;10.95;100.00;100543.44;4972904;28;20066;-55
2021/12/14 05:37:47;;;;;;;3.67;0.93;;;;;;;10.92;100.00;100558.28;4971084;28;20098;-55
2021/12/14 05:43:54;;;;;;;5.05;1.27;;;;;;;10.91;100.00;100551.16;4972762;28;20058;-55
2021/12/14 05:47:00;;;;;;;1.70;0.80;;;;;;;10.92;100.00;100547.13;4973064;28;20407;-55
2021/12/14 05:50:04;;;;;;;2.25;0.98;;;;;;;10.92;100.00;100550.69;4972889;28;20057;-55
2021/12/14 05:53:08;;;;;;;5.75;1.55;;;;;;;10.97;100.00;100554.88;4973099;28;20062;-55
2021/12/14 05:56:20;;;;;;;5.03;0.95;;;;;;;10.92;100.00;100552.69;4975612;28;20108;-55
2021/12/14 05:59:25;;;;;;;;;;;;;;;10.85;100.00;100550.22;4989371;28;20383;-55
2021/12/14 06:02:27;;;;;;;3.28;0.68;;;;;;;10.83;100.00;100563.84;4987926;28;19924;-54
2021/12/14 06:05:31;;;;;;;3.50;0.77;;;;;;;10.83;100.00;100561.06;4988279;28;20429;-55
2021/12/14 06:08:34;;;;;;;8.85;0.50;;;;;;;10.83;100.00;100569.41;4984688;28;20109;-55
2021/12/14 06:11:39;;;;;;;0.82;0.57;;;;;;;10.83;100.00;100567.38;4984685;28;20093;-55
2021/12/14 06:14:51;;;;;;;1.80;0.75;;;;;;;10.84;100.00;100573.75;4985956;28;20053;-55
2021/12/14 06:17:54;;;;;;;1.10;0.30;;;;;;;10.79;100.00;100566.75;4981672;28;20050;-55
2021/12/14 06:20:57;;;;;;;1.42;1.05;;;;;;;10.79;100.00;100577.13;4972499;28;20166;-55
2021/12/14 06:24:06;;;;;;;6.15;1.08;;;;;;;10.82;100.00;100577.00;4972251;28;20061;-55
2021/12/14 06:27:14;;;;;;;0.65;0.47;;;;;;;10.80;100.00;100578.69;4960902;28;20408;-56
2021/12/14 06:30:25;;;;;;;1.23;0.57;;;;;;;10.81;100.00;100583.00;4971808;28;20062;-55
2021/12/14 06:33:31;;;;;;;1.30;0.52;;;;;;;10.80;100.00;100581.47;4964618;28;20058;-55
2021/12/14 06:40:43;;;;;;;0.52;0.52;;;;;;;10.73;100.00;100585.31;4971647;28;20561;-55
2021/12/14 06:43:52;;;;;;;2.28;0.50;;;;;;;10.60;100.00;100588.22;4972145;28;20189;-55
2021/12/14 06:46:55;;;;;;;0.68;0.35;;;;;;;10.58;100.00;100593.47;4972197;28;20150;-55
2021/12/14 06:50:05;;;;;;;15.30;1.58;;;;;;;10.54;100.00;100594.84;4972096;28;20069;-55
2021/12/14 06:53:11;;;;;;;9.18;1.98;;;;;;;10.51;100.00;100599.31;4972151;28;20181;-55
2021/12/14 06:56:16;;;;;;;6.13;2.38;;;;;;;10.52;100.00;100598.09;4971924;28;20517;-55
2021/12/14 06:59:22;;;;;;;5.57;1.90;;;;;;;10.52;100.00;100591.72;4972215;28;20102;-55
2021/12/14 07:02:26;;;;;;;10.77;1.50;;;;;;;10.56;100.00;100598.72;4971676;28;20054;-55
2021/12/14 07:05:29;;;;;;;18.38;1.75;;;;;;;10.70;100.00;100591.78;4971121;28;20389;-55
2021/12/14 07:08:32;;;;;;;13.15;2.00;;;;;;;10.72;100.00;100594.88;4971502;28;20057;-55
2021/12/14 07:11:37;;;;;;;4.53;1.58;;;;;;;10.70;100.00;100599.41;4971559;28;20105;-55
2021/12/14 07:15:19;;;;;;;6.75;1.15;;;;;;;10.73;100.00;100606.81;4971684;28;20101;-55
2021/12/14 07:18:27;;;;;;;1.88;1.13;;;;;;;10.62;100.00;100602.44;4971898;28;20077;-55
2021/12/14 07:21:47;;;;;;;7.13;1.00;;;;;;;10.55;100.00;100599.94;4971467;28;20101;-55
2021/12/14 07:25:05;;;;;;;4.90;1.95;;;;;;;10.61;100.00;100605.69;4971879;28;20062;-55
2021/12/14 07:28:13;;;;;;;4.88;1.70;;;;;;;10.59;100.00;100620.06;4971803;28;20062;-55
2021/12/14 07:31:24;;;;;;;7.22;0.77;;;;;;;10.59;100.00;100619.28;4971931;28;20058;-55
2021/12/14 07:34:27;;;;;;;2.10;1.95;;;;;;;10.63;100.00;100612.34;4971480;28;20407;-55
2021/12/14 07:37:35;;;;;;;8.38;1.83;;;;;;;10.68;100.00;100614.53;4970970;28;20049;-55
2021/12/14 07:40:41;;;;;;;8.18;1.58;;;;;;;10.63;100.00;100620.69;4971082;28;20525;-55
2021/12/14 07:44:10;;;;;;;2.63;1.90;;;;;;;10.62;100.00;100624.72;4970859;28;20143;-55
2021/12/14 07:47:15;;;;;;;3.00;1.38;;;;;;;10.62;100.00;100621.94;4966362;28;20058;-55
2021/12/14 07:50:19;;;;;;;17.80;2.42;;;;;;;10.61;100.00;100627.97;4971596;28;20066;-55
2021/12/14 07:53:40;;;;;;;6.57;1.08;;;;;;;10.68;100.00;100616.53;4971546;28;20118;-55
2021/12/14 07:56:45;;;;;;;3.40;1.50;;;;;;;10.68;100.00;100622.91;4970932;28;20059;-55
2021/12/14 07:59:53;;;;;;;15.35;1.90;;;;;;;10.71;100.00;100614.84;4971427;28;20102;-55
2021/12/14 08:03:01;;;;;;;7.32;1.90;;;;;;;10.74;100.00;100619.53;4971029;28;20049;-55
2021/12/14 08:06:08;;;;;;;3.75;1.52;;;;;;;10.75;100.00;100621.84;4971523;28;20384;-55
2021/12/14 08:09:32;;;;;;;1.65;0.63;;;;;;;10.47;100.00;100623.72;4956975;28;20490;-55
2021/12/14 08:12:40;;;;;;;5.50;0.90;;;;;;;10.70;100.00;100630.78;4973886;28;20159;-55
2021/12/14 08:16:00;;;;;;;9.27;1.08;;;;;;;10.71;100.00;100628.78;4974377;28;20194;-55
2021/12/14 08:19:03;;;;;;;2.30;0.95;;;;;;;10.68;100.00;100622.13;4974525;28;20101;-55
2021/12/14 08:22:13;;;;;;;6.43;1.38;;;;;;;10.61;100.00;100628.75;4974536;28;20135;-55
2021/12/14 08:25:24;;;;;;;8.25;1.40;;;;;;;10.40;100.00;100629.56;4974667;28;20514;-55
2021/12/14 08:28:27;;;;;;;9.32;1.63;;;;;;;10.44;100.00;100629.41;4973958;28;20093;-54
2021/12/14 08:31:50;;;;;;;6.00;1.83;;;;;;;10.40;100.00;100626.78;4974282;28;20054;-55
2021/12/14 08:34:56;;;;;;;3.95;1.60;;;;;;;10.38;100.00;100632.03;4974364;28;20057;-55
2021/12/14 08:38:03;;;;;;;11.70;3.25;;;;;;;10.39;100.00;100641.16;4974292;28;20142;-55
2021/12/14 08:41:19;;;;;;;26.67;3.80;;;;;;;10.43;100.00;100639.81;4973090;28;20142;-55
2021/12/14 08:44:36;;;;;;;14.07;2.42;;;;;;;10.42;100.00;100638.22;4966729;28;20058;-55
2021/12/14 08:47:40;;;;;;;7.50;1.48;;;;;;;10.55;100.00;100644.50;4973457;28;20555;-55
2021/12/14 08:50:53;;;;;;;6.30;1.63;;;;;;;10.66;100.00;100653.22;4973765;28;20050;-55
2021/12/14 08:54:02;;;;;;;5.30;1.67;;;;;;;10.68;100.00;100650.75;4963365;28;20110;-55
2021/12/14 08:57:14;;;;;;;13.50;1.45;;;;;;;10.68;100.00;100660.38;4972958;28;20041;-55
2021/12/14 09:00:30;;;;;;;15.48;1.90;;;;;;;10.79;100.00;100660.69;4974083;28;20163;-55
2021/12/14 09:03:40;;;;;;;8.73;1.83;;;;;;;10.88;100.00;100658.75;4973201;28;20411;-55
2021/12/14 09:06:47;;;;;;;6.78;1.00;;;;;;;11.07;100.00;100659.56;4973753;28;20173;-55
2021/12/14 09:09:52;;;;;;;1.95;0.98;;;;;;;11.13;100.00;100652.94;4960926;28;20062;-55
2021/12/14 09:13:00;;;;;;;13.55;1.30;;;;;;;11.10;100.00;100653.88;4973917;28;20399;-55
2021/12/14 09:16:11;;;;;;;13.93;2.05;;;;;;;11.08;100.00;100655.56;4973212;28;20065;-55
2021/12/14 09:19:22;;;;;;;6.70;1.73;;;;;;;11.12;100.00;100658.97;4973267;28;20054;-56
2021/12/14 09:22:32;;;;;;;2.35;0.63;;;;;;;11.23;100.00;100662.13;4971997;28;20109;-56
2021/12/14 09:25:36;;;;;;;3.80;0.90;;;;;;;11.28;100.00;100661.53;4972758;28;20045;-56
2021/12/14 09:28:39;;;;;;;18.15;2.55;;;;;;;11.35;100.00;100670.34;4972932;28;20109;-55
2021/12/14 09:31:44;;;;;;;6.13;2.03;;;;;;;11.40;100.00;100666.19;4972878;28;20042;-55
2021/12/14 09:34:47;;;;;;;7.22;2.85;;;;;;;11.48;100.00;100666.69;4973418;28;20057;-55
2021/12/14 09:37:52;;;;;;;6.32;1.50;;;;;;;11.64;100.00;100663.59;4972593;28;20100;-55
2021/12/14 09:40:56;;;;;;;9.73;1.85;;;;;;;11.73;100.00;100667.22;4972944;28;20113;-55
2021/12/14 09:44:02;;;;;;;3.00;1.42;;;;;;;11.79;100.00;100659.78;4972195;28;20586;-56
2021/12/14 09:47:12;;;;;;;4.28;1.15;;;;;;;11.87;100.00;100674.97;4973207;28;20057;-56
2021/12/14 09:50:23;;;;;;;2.35;0.73;;;;;;;11.97;100.00;100670.94;4962035;28;20134;-61
2021/12/14 09:53:27;;;;;;;13.07;2.38;;;;;;;11.95;100.00;100673.41;4972578;28;20098;-55
2021/12/14 09:56:36;;;;;;;2.22;0.93;;;;;;;11.94;100.00;100677.44;4972432;28;20553;-55
2021/12/14 09:59:40;;;;;;;0.70;0.70;;;;;;;12.03;100.00;100685.84;4971905;28;20411;-55
2021/12/14 10:02:46;;;;;;;0.90;0.75;;;;;;;12.13;100.00;100692.97;4972479;28;20093;-55
2021/12/14 10:05:55;;;;;;;3.72;1.20;;;;;;;12.10;100.00;100685.53;4972242;28;20399;-54
2021/12/14 10:09:04;;;;;;;2.58;1.13;;;;;;;12.19;100.00;100691.09;4972752;28;20510;-54
2021/12/14 10:15:46;;;;;;;1.63;0.73;;;;;;;12.51;100.00;100681.28;4971809;28;20398;-55
2021/12/14 10:18:56;;;;;;;3.45;1.35;;;;;;;12.58;100.00;100685.78;4972207;28;20512;-55
2021/12/14 10:22:04;;;;;;;2.97;1.05;;;;;;;12.66;100.00;100671.00;4972670;28;20463;-54
2021/12/14 10:25:14;;;;;;;2.95;0.55;;;;;;;12.85;100.00;100671.72;4972179;28;20062;-60
2021/12/14 10:28:18;;;;;;;14.27;2.00;;;;;;;12.94;100.00;100657.69;4972250;28;20082;-55
2021/12/14 10:31:29;;;;;;;1.08;0.98;;;;;;;12.92;100.00;100663.78;4972405;28;20066;-55
2021/12/14 10:34:39;;;;;;;1.15;0.40;;;;;;;12.98;100.00;100661.09;4960657;28;20057;-54
2021/12/14 10:37:58;;;;;;;7.72;1.45;;;;;;;13.12;100.00;100663.25;4971931;28;20045;-55
2021/12/14 10:44:31;;;;;;;1.17;0.68;;;;;;;13.01;100.00;100657.38;4960054;28;20110;-55
2021/12/14 10:47:35;;;;;;;2.17;0.68;;;;;;;12.92;100.00;100647.00;4971582;28;20132;-55
2021/12/14 10:50:39;;;;;;;1.15;0.70;;;;;;;12.86;100.00;100651.66;4971171;28;20065;-55
2021/12/14 10:53:46;;;;;;;1.90;0.32;;;;;;;12.76;100.00;100657.75;4971486;28;20049;-55
2021/12/14 10:56:54;;;;;;;3.92;0.60;;;;;;;12.73;100.00;100656.69;4971808;28;20105;-60
2021/12/14 10:59:58;;;;;;;5.45;1.52;;;;;;;12.86;100.00;100662.09;4971868;28;20130;-57
2021/12/14 11:03:08;;;;;;;2.17;0.88;;;;;;;12.96;100.00;100655.22;4972092;28;20058;-53
2021/12/14 11:06:16;;;;;;;5.47;0.77;;;;;;;13.00;100.00;100639.03;4971510;28;20109;-54
2021/12/14 11:09:40;;;;;;;2.70;0.80;;;;;;;13.09;100.00;100644.63;4971453;28;20049;-55
2021/12/14 11:12:49;;;;;;;6.20;1.13;;;;;;;13.13;100.00;100648.00;4970989;28;20046;-55
2021/12/14 11:15:55;;;;;;;3.10;1.15;;;;;;;13.17;100.00;100645.81;4971496;28;20051;-54
2021/12/14 11:19:04;;;;;;;0.55;0.38;;;;;;;13.23;100.00;100635.50;4971602;28;20511;-53
2021/12/14 11:22:13;;;;;;;10.77;2.65;;;;;;;13.43;100.00;100632.91;4971379;28;20063;-54
2021/12/14 11:25:25;;;;;;;9.20;2.10;;;;;;;13.51;100.00;100636.88;4971684;28;20105;-53
2021/12/14 11:28:36;;;;;;;4.80;1.83;;;;;;;13.58;100.00;100630.94;4957298;28;20057;-54
2021/12/14 11:31:42;;;;;;;2.17;0.57;;;;;;;13.28;100.00;100629.28;4970822;28;20057;-53
2021/12/14 11:34:46;;;;;;;3.63;0.70;;;;;;;13.03;100.00;100640.13;4971227;28;20049;-53
2021/12/14 11:37:50;;;;;;;11.75;3.22;;;;;;;13.50;100.00;100629.75;4971205;28;20082;-53
2021/12/14 11:40:54;;;;;;;6.53;1.48;;;;;;;13.81;100.00;100628.59;4971588;28;20046;-54
2021/12/14 11:44:04;;;;;;;7.95;0.80;;;;;;;14.09;100.00;100627.09;4971487;28;20081;-53
2021/12/14 11:50:37;;;;;;;5.72;1.02;;;;;;;14.40;100.00;100621.84;4974555;28;20411;-54
2021/12/14 11:53:49;;;;;;;4.07;0.52;;;;;;;14.40;100.00;100624.66;4974858;28;20101;-54
2021/12/14 11:56:52;;;;;;;2.20;0.65;;;;;;;14.49;100.00;100630.16;4966767;28;20133;-51
2021/12/14 12:00:08;;;;;;;1.63;0.60;;;;;;;14.65;100.00;100624.06;4975178;28;20105;-55
2021/12/14 12:03:32;;;;;;;2.88;0.93;;;;;;;14.77;100.00;100620.16;4974630;28;20101;-56
2021/12/14 12:09:51;;;;;;;1.73;0.50;;;;;;;14.87;100.00;100613.19;4974598;28;20064;-52
2021/12/14 12:12:55;;;;;;;14.15;0.95;;;;;;;14.85;100.00;100610.13;4974864;28;20565;-52
2021/12/14 12:16:09;;;;;;;0.98;0.50;;;;;;;14.84;100.00;100608.56;4974340;28;20085;-52
2021/12/14 12:19:17;;;;;;;3.75;0.80;;;;;;;14.79;100.00;100612.03;4963245;28;20463;-52
2021/12/14 12:22:20;;;;;;;0.73;0.50;;;;;;;14.72;100.00;100611.69;4974403;28;20089;-52
2021/12/14 12:25:37;;;;;;;2.20;0.30;;;;;;;14.78;100.00;100613.31;4974210;28;20101;-52
2021/12/14 12:28:44;;;;;;;1.77;0.57;;;;;;;14.84;100.00;100599.38;4958285;28;20549;-52
2021/12/14 12:31:55;;;;;;;3.78;0.55;;;;;;;14.80;100.00;100596.78;4974266;28;20058;-53
2021/12/14 12:34:59;;;;;;;2.05;0.57;;;;;;;14.87;100.00;100596.38;4974617;28;20049;-52
2021/12/14 12:38:17;;;;;;;0.80;0.40;;;;;;;14.91;100.00;100599.75;4974446;28;20057;-52
2021/12/14 12:41:38;;;;;;;1.45;0.20;;;;;;;14.89;100.00;100590.28;4974299;28;20073;-52
2021/12/14 12:44:42;;;;;;;3.30;0.43;;;;;;;14.69;100.00;100602.19;4972874;28;20886;-52
2021/12/14 12:47:45;;;;;;;1.05;0.40;;;;;;;14.76;100.00;100604.63;4974188;28;20058;-52
2021/12/14 12:50:47;;;;;;;0.40;0.25;;;;;;;14.69;100.00;100604.22;4974228;28;20542;-52
2021/12/14 12:53:51;;;;;;;1.00;0.20;;;;;;;14.73;100.00;100596.38;4973877;28;20069;-52
2021/12/14 12:57:42;;;;;;;0.75;0.10;;;;;;;14.78;100.00;100596.50;4973614;28;20454;-52
2021/12/14 13:00:52;;;;;;;0.28;0.28;;;;;;;14.90;100.00;100584.16;4951721;28;20053;-52
2021/12/14 13:03:55;;;;;;;0.85;0.40;;;;;;;14.99;100.00;100592.47;4973800;28;20050;-52
2021/12/14 13:07:06;;;;;;;1.42;0.75;;;;;;;14.95;100.00;100597.50;4973430;28;20400;-52
2021/12/14 13:10:19;;;;;;;0.22;0.13;;;;;;;14.95;100.00;100599.53;4960287;28;20113;-52
2021/12/14 13:13:29;;;;;;;0.52;0.25;;;;;;;14.96;100.00;100599.06;4973591;28;20058;-52
2021/12/14 13:16:36;;;;;;;1.40;0.40;;;;;;;14.90;100.00;100594.63;4973201;28;20045;-52
2021/12/14 13:19:40;;;;;;;1.88;0.20;;;;;;;14.87;100.00;100593.56;4973108;28;20379;-52
2021/12/14 13:22:47;;;;;;;1.23;0.28;;;;;;;14.83;100.00;100598.63;4967278;28;20057;-52
2021/12/14 13:25:51;;;;;;;0.30;0.20;;;;;;;14.82;100.00;100602.66;4961407;28;20522;-52
2021/12/14 13:29:16;;;;;;;1.33;0.17;;;;;;;14.75;100.00;100600.25;4973419;28;20159;-52
2021/12/14 13:32:33;;;;;;;0.10;0.03;;;;;;;14.69;100.00;100605.00;4962348;28;20426;-53
2021/12/14 13:35:35;;;;;;;3.25;0.43;;;;;;;14.62;100.00;100602.59;4953492;28;20050;-52
2021/12/14 13:38:38;;;;;;;0.47;0.20;;;;;;;14.70;100.00;100600.97;4953638;28;20050;-52
2021/12/14 13:41:59;;;;;;;0.38;0.20;;;;;;;14.74;100.00;100598.72;4959632;28;20053;-52
2021/12/14 13:45:06;;;;;;;0.68;0.35;;;;;;;14.81;100.00;100603.91;4953644;28;20058;-52
2021/12/14 13:48:13;;;;;;;0.73;0.35;;;;;;;14.82;100.00;100599.84;4953723;28;20050;-52
2021/12/14 13:51:20;;;;;;;1.83;0.25;;;;;;;14.82;100.00;100599.84;4956446;28;20061;-52
2021/12/14 13:54:24;;;;;;;0.15;0.10;;;;;;;14.81;100.00;100598.31;4954972;28;20109;-52
2021/12/14 13:57:27;;;;;;;0.20;0.17;;;;;;;14.80;100.00;100591.16;4953270;28;20058;-52
2021/12/14 14:00:39;;;;;;;1.05;0.20;;;;;;;14.78;100.00;100596.50;4952452;28;20055;-52
2021/12/14 14:03:48;;;;;;;0.60;0.22;;;;;;;14.75;100.00;100593.91;4960580;28;20118;-52
2021/12/14 14:06:52;;;;;;;0.45;0.15;;;;;;;14.75;100.00;100594.66;4957989;28;20155;-52
2021/12/14 14:09:56;;;;;;;0.55;0.47;;;;;;;14.79;100.00;100598.00;4958653;28;20062;-55
2021/12/14 14:13:06;;;;;;;2.08;0.22;;;;;;;14.80;100.00;100593.97;4972102;28;20110;-55
2021/12/14 14:16:09;;;;;;;0.30;0.10;;;;;;;14.72;100.00;100592.81;4963148;28;20055;-55
2021/12/14 14:19:16;;;;;;;0.30;0.10;;;;;;;14.68;100.00;100586.66;4952910;28;20079;-55
2021/12/14 14:22:31;;;;;;;0.68;0.22;;;;;;;14.71;100.00;100594.06;4963792;28;20054;-55
2021/12/14 14:25:34;;;;;;;1.15;0.32;;;;;;;14.62;100.00;100588.56;4951963;28;20070;-55
2021/12/14 14:28:50;;;;;;;1.50;0.17;;;;;;;14.65;100.00;100598.81;4952790;28;20054;-55
2021/12/14 14:32:03;;;;;;;1.17;0.35;;;;;;;14.73;100.00;100593.56;4952733;28;20105;-55
2021/12/14 14:35:08;;;;;;;2.15;0.40;;;;;;;14.68;100.00;100589.47;4966092;28;20399;-55
2021/12/14 14:38:26;;;;;;;0.90;0.20;;;;;;;14.65;100.00;100598.81;4953099;28;20094;-55
2021/12/14 14:41:33;;;;;;;2.50;0.43;;;;;;;14.75;100.00;100594.66;4960436;28;20130;-55
2021/12/14 14:44:39;;;;;;;0.32;0.20;;;;;;;14.72;100.00;100587.22;4958475;28;20054;-55
2021/12/14 14:47:44;;;;;;;2.22;0.40;;;;;;;14.61;100.00;100595.44;4952898;28;20062;-55
2021/12/14 14:50:48;;;;;;;0.57;0.20;;;;;;;14.75;100.00;100603.06;4952941;28;20478;-55
2021/12/14 14:53:52;;;;;;;0.10;0.00;;;;;;;14.83;100.00;100607.03;4968529;28;20128;-55
2021/12/14 14:56:55;;;;;;;0.55;0.25;;;;;;;14.81;100.00;100615.13;4953255;28;20057;-55
2021/12/14 14:59:58;;;;;;;1.98;0.25;;;;;;;14.70;100.00;100625.41;4952607;28;20078;-60
2021/12/14 15:03:06;;;;;;;0.10;0.10;;;;;;;14.59;100.00;100619.63;4968264;28;20492;-61
2021/12/14 15:06:33;;;;;;;0.10;0.10;;;;;;;14.50;100.00;100626.09;4971530;28;20057;-61